• Join FlightAware (Why Join?)
  • Login
  • US Flag 
06:49AM EDT


 

Airport Tracker/Info


-or-


 

Live Flight TrackerFlight Track Log ✈ SLI230 ✈ 01-Jul-2013 ✈ MMMX / MEX - MMTC / TRC

Flight Track Log - Related Links

Times and Time Zones

All times are in EDT time to prevent confusion due to time zone crossing. See the SLI230 flight status page for this flight to view local times or setup timezone preferences in your user account.

Time Position Orientation Groundspeed Altitude Reporting Facility
EDT Latitude Longitude Course Direction KTS MPH feet Rate Location/Type
02:19PM 19.9313 -99.4060 328° Northwest  Level Estimated
02:20PM 20.0138 -99.4618 328° Northwest  Level Estimated
02:21PM 20.0962 -99.5178 328° Northwest  Level Estimated
02:22PM 20.1786 -99.5737 327° Northwest  Level Estimated
02:23PM 20.2610 -99.6298 327° Northwest  Level Estimated
02:24PM 20.3433 -99.6858 327° Northwest  Level Estimated
02:25PM 20.4257 -99.7420 327° Northwest  Level Estimated
02:26PM 20.5080 -99.7982 327° Northwest  Level Estimated
02:27PM 20.5903 -99.8545 327° Northwest  Level Estimated
02:28PM 20.6726 -99.9108 327° Northwest  Level Estimated
02:29PM 20.7549 -99.9672 327° Northwest  Level Estimated
02:30PM 20.8372 -100.0236 327° Northwest  Level Estimated
02:31PM 20.9194 -100.0801 327° Northwest  Level Estimated
02:32PM 21.0016 -100.1367 327° Northwest  Level Estimated
02:33PM 21.0839 -100.1934 327° Northwest  Level Estimated
02:34PM 21.1660 -100.2501 327° Northwest  Level Estimated
02:35PM 21.2482 -100.3068 327° Northwest  Level Estimated
02:36PM 21.3304 -100.3636 327° Northwest  Level Estimated
02:37PM 21.4125 -100.4205 327° Northwest  Level Estimated
02:38PM 21.4946 -100.4775 327° Northwest  Level Estimated
02:39PM 21.5767 -100.5345 327° Northwest  Level Estimated
02:40PM 21.6588 -100.5916 327° Northwest  Level Estimated
02:41PM 21.7408 -100.6487 327° Northwest  Level Estimated
02:42PM 21.8228 -100.7059 327° Northwest  Level Estimated
02:43PM 21.9049 -100.7632 327° Northwest  Level Estimated
02:44PM 21.9868 -100.8206 327° Northwest  Level Estimated
02:45PM 22.0688 -100.8780 327° Northwest  Level Estimated
02:46PM 22.1508 -100.9355 327° Northwest  Level Estimated
02:47PM 22.2327 -100.9930 327° Northwest  Level Estimated
02:48PM 22.3146 -101.0506 327° Northwest  Level Estimated
02:49PM 22.3965 -101.1083 327° Northwest  Level Estimated
02:50PM 22.4784 -101.1660 327° Northwest  Level Estimated
02:51PM 22.5602 -101.2239 327° Northwest  Level Estimated
02:52PM 22.6420 -101.2817 327° Northwest  Level Estimated
02:53PM 22.7239 -101.3397 327° Northwest  Level Estimated
02:54PM 22.8056 -101.3977 327° Northwest  Level Estimated
02:55PM 22.8874 -101.4558 327° Northwest  Level Estimated
02:56PM 22.9692 -101.5140 327° Northwest  Level Estimated
02:57PM 23.0509 -101.5722 327° Northwest  Level Estimated
02:58PM 23.1326 -101.6305 327° Northwest  Level Estimated
02:59PM 23.2143 -101.6889 327° Northwest  Level Estimated
03:00PM 23.2959 -101.7473 327° Northwest  Level Estimated
03:01PM 23.3776 -101.8058 327° Northwest  Level Estimated
03:02PM 23.4592 -101.8644 327° Northwest  Level Estimated
03:03PM 23.5408 -101.9231 327° Northwest  Level Estimated
03:04PM 23.6224 -101.9818 327° Northwest  Level Estimated
03:05PM 23.7039 -102.0406 327° Northwest  Level Estimated
03:06PM 23.7854 -102.0995 327° Northwest  Level Estimated
03:07PM 23.8669 -102.1585 327° Northwest  Level Estimated
03:08PM 23.9484 -102.2175 326° Northwest  Level Estimated
03:09PM 24.0299 -102.2766 326° Northwest  Level Estimated
03:10PM 24.1113 -102.3358 326° Northwest  Level Estimated
03:11PM 24.1927 -102.3951 326° Northwest  Level Estimated
03:12PM 24.2741 -102.4544 326° Northwest  Level Estimated
03:13PM 24.3555 -102.5138 326° Northwest  Level Estimated
03:14PM 24.4368 -102.5733 326° Northwest  Level Estimated
03:15PM 24.5182 -102.6328 326° Northwest  Level Estimated
03:16PM 24.5995 -102.6925 326° Northwest  Level Estimated
03:17PM 24.6807 -102.7522 326° Northwest  Level Estimated
03:18PM 24.7620 -102.8120 326° Northwest  Level Estimated
03:19PM 24.8432 -102.8718 326° Northwest  Level Estimated
03:20PM 24.9244 -102.9318 326° Northwest  Level Estimated
03:21PM 25.0056 -102.9918 326° Northwest  Level Estimated
03:22PM 25.0868 -103.0519 326° Northwest  Level Estimated
03:23PM 25.1679 -103.1121 326° Northwest  Level Estimated
03:24PM 25.2490 -103.1724 326° Northwest  Level Estimated
03:25PM 25.3301 -103.2327 326° Northwest  Level Estimated
03:26PM 25.4111 -103.2932 326° Northwest  Level Estimated
03:27PM 25.4922 -103.3537 326° Northwest  Level Estimated
03:28PM 25.5683 -103.4106 326° Northwest  Level Estimated
03:29PM 25.5683 -103.4106 234° Southwest  Level Estimated
03:30PM 25.5683 -103.4106 234° Southwest  Level Estimated
03:31PM 25.5683 -103.4106 234° Southwest  Level Estimated